Time;durP1;ratioP1;P1;durP2;ratioP2;P2;SDS_P1;SDS_P2;PMS_P1;PMS_P2;Temp;Humidity;BMP_temperature;BMP_pressure;BME280_temperature;BME280_humidity;BME280_pressure;Samples;Min_cycle;Max_cycle;Signal;HPM_P1;HPM_P2
2023/10/14 00:01:13;;;;;;;14.48;9.52;;;18.30;99.90;;;;;;5032587;28;20270;-66
2023/10/14 00:03:45;;;;;;;15.95;9.52;;;18.40;99.90;;;;;;5033811;28;20220;-65
2023/10/14 00:06:12;;;;;;;18.27;10.20;;;18.30;99.90;;;;;;5032359;28;20203;-65
2023/10/14 00:11:21;;;;;;;20.95;10.05;;;18.40;99.90;;;;;;5034251;28;20216;-64
2023/10/14 00:13:52;;;;;;;17.42;10.05;;;18.40;99.90;;;;;;5033859;28;20217;-65
2023/10/14 00:18:56;;;;;;;20.10;9.77;;;18.40;99.90;;;;;;5033888;28;20208;-64
2023/10/14 00:21:25;;;;;;;17.20;9.80;;;18.50;99.90;;;;;;5015846;28;20180;-65
2023/10/14 00:23:55;;;;;;;19.20;9.07;;;18.50;99.90;;;;;;5026021;28;20211;-65
2023/10/14 00:26:25;;;;;;;17.40;9.32;;;18.50;99.90;;;;;;5033094;28;20249;-65
2023/10/14 00:28:54;;;;;;;16.52;9.93;;;18.50;99.90;;;;;;5019459;28;20203;-65
2023/10/14 00:31:24;;;;;;;18.15;9.35;;;18.60;99.90;;;;;;5033268;28;20186;-64
2023/10/14 00:33:52;;;;;;;14.93;8.98;;;18.70;99.90;;;;;;5032853;28;20245;-66
2023/10/14 00:36:22;;;;;;;15.00;8.43;;;18.70;99.90;;;;;;5033260;28;20198;-65
2023/10/14 00:38:55;;;;;;;11.10;8.02;;;18.80;99.90;;;;;;5014769;28;20175;-66
2023/10/14 00:41:25;;;;;;;16.77;8.77;;;18.80;99.90;;;;;;5016368;28;20577;-64
2023/10/14 00:43:52;;;;;;;17.00;8.18;;;18.90;99.90;;;;;;5033368;28;20202;-64
2023/10/14 00:46:18;;;;;;;17.83;7.95;;;18.80;99.90;;;;;;5033340;28;20194;-65
2023/10/14 00:48:46;;;;;;;15.27;8.13;;;18.80;99.90;;;;;;5033203;28;20172;-65
2023/10/14 00:51:15;;;;;;;14.80;8.00;;;18.90;99.90;;;;;;5033055;28;20221;-66
2023/10/14 00:53:52;;;;;;;15.63;8.25;;;19.00;99.90;;;;;;5015580;28;20206;-65
2023/10/14 00:56:27;;;;;;;16.58;9.85;;;19.10;99.90;;;;;;5033361;28;20162;-65
2023/10/14 00:58:57;;;;;;;15.20;9.40;;;19.10;99.90;;;;;;5028041;28;20189;-65
2023/10/14 01:01:49;;;;;;;13.70;8.15;;;19.10;99.90;;;;;;5033140;28;20187;-65
2023/10/14 01:04:19;;;;;;;12.43;7.70;;;19.10;99.90;;;;;;5032909;28;20217;-65
2023/10/14 01:09:30;;;;;;;16.55;9.15;;;18.90;99.90;;;;;;5031928;28;20185;-65
2023/10/14 01:11:56;;;;;;;17.95;8.38;;;18.80;99.90;;;;;;5033091;28;20166;-64
2023/10/14 01:14:23;;;;;;;15.30;9.23;;;18.60;99.90;;;;;;5033074;28;20167;-65
2023/10/14 01:16:49;;;;;;;14.30;8.25;;;18.50;99.90;;;;;;5015085;28;20179;-64
2023/10/14 01:19:20;;;;;;;18.20;9.07;;;18.30;99.90;;;;;;5032358;28;20187;-64
2023/10/14 01:21:51;;;;;;;14.05;8.82;;;18.10;99.90;;;;;;5031482;28;20254;-64
2023/10/14 01:24:17;;;;;;;15.75;9.13;;;17.90;99.90;;;;;;5031711;28;20230;-64
2023/10/14 01:26:56;;;;;;;15.57;8.50;;;17.70;99.90;;;;;;5032621;28;20206;-64
2023/10/14 01:29:31;;;;;;;15.05;9.15;;;17.50;99.90;;;;;;5033043;28;20159;-64
2023/10/14 01:32:23;;;;;;;20.23;8.88;;;17.50;99.90;;;;;;5032582;28;20167;-64
2023/10/14 01:34:55;;;;;;;15.00;8.98;;;17.40;99.90;;;;;;5015959;28;20179;-64
2023/10/14 01:37:21;;;;;;;15.82;9.18;;;17.40;99.90;;;;;;5031556;28;20186;-65
2023/10/14 01:39:56;;;;;;;14.23;8.63;;;17.40;99.90;;;;;;5031353;28;20187;-64
2023/10/14 01:42:22;;;;;;;14.50;9.13;;;17.40;99.90;;;;;;5015099;28;20205;-65
2023/10/14 01:44:53;;;;;;;14.23;8.93;;;17.40;99.90;;;;;;5033420;28;20203;-64
2023/10/14 01:47:21;;;;;;;19.58;9.57;;;17.40;99.90;;;;;;5036141;28;20198;-65
2023/10/14 01:49:47;;;;;;;16.05;9.43;;;17.30;99.90;;;;;;5018618;28;20175;-64
2023/10/14 01:52:15;;;;;;;16.85;8.65;;;17.40;99.90;;;;;;5036243;28;20195;-65
2023/10/14 01:54:41;;;;;;;14.68;8.90;;;17.40;99.90;;;;;;5035239;28;20218;-65
2023/10/14 01:57:15;;;;;;;18.65;7.60;;;17.10;99.90;;;;;;5021890;28;20215;-65
2023/10/14 01:59:43;;;;;;;15.65;7.20;;;16.80;99.90;;;;;;5036791;28;20170;-64
2023/10/14 02:02:09;;;;;;;12.00;6.25;;;16.50;99.90;;;;;;5036372;28;20538;-65
2023/10/14 02:04:36;;;;;;;7.40;3.65;;;16.30;99.90;;;;;;5036136;28;20181;-64
2023/10/14 02:07:26;;;;;;;3.60;2.60;;;15.90;99.90;;;;;;5035591;28;20206;-65
2023/10/14 02:09:48;;;;;;;3.80;2.60;;;15.60;99.90;;;;;;5035603;28;20190;-64
2023/10/14 02:12:15;;;;;;;3.42;2.13;;;15.10;99.90;;;;;;5033564;28;20282;-65
2023/10/14 02:14:54;;;;;;;1.90;1.80;;;14.80;99.90;;;;;;5036196;28;20170;-65
2023/10/14 02:17:20;;;;;;;3.67;2.40;;;14.60;99.90;;;;;;5020282;28;20236;-66
2023/10/14 02:19:49;;;;;;;3.05;1.80;;;14.40;99.90;;;;;;5035800;28;20175;-65
2023/10/14 02:22:21;;;;;;;2.55;2.20;;;14.30;99.90;;;;;;5036046;28;20281;-65
2023/10/14 02:24:48;;;;;;;2.33;2.13;;;14.10;99.90;;;;;;5036053;28;20159;-65
2023/10/14 02:27:14;;;;;;;2.70;2.03;;;14.00;99.90;;;;;;5034195;28;20593;-65
2023/10/14 02:29:47;;;;;;;3.50;2.10;;;13.90;99.90;;;;;;5035897;28;20702;-66
2023/10/14 02:32:13;;;;;;;2.20;2.00;;;13.80;99.90;;;;;;5035558;28;20191;-65
2023/10/14 02:34:40;;;;;;;3.47;2.20;;;13.80;99.90;;;;;;5035128;28;20180;-66
2023/10/14 02:37:07;;;;;;;2.05;1.90;;;13.80;99.90;;;;;;5035505;28;20179;-65
2023/10/14 02:39:33;;;;;;;2.00;1.70;;;13.70;99.90;;;;;;5035606;28;20233;-65
2023/10/14 02:42:00;;;;;;;2.90;1.77;;;13.60;99.90;;;;;;5034370;28;20266;-65
2023/10/14 02:44:33;;;;;;;2.15;1.95;;;13.50;99.90;;;;;;5035977;28;20517;-65
2023/10/14 02:47:05;;;;;;;2.00;1.63;;;13.40;99.90;;;;;;5032314;28;20199;-65
2023/10/14 02:49:37;;;;;;;3.50;1.80;;;13.40;99.90;;;;;;5035429;28;20616;-65
2023/10/14 02:52:18;;;;;;;1.80;1.70;;;13.30;99.90;;;;;;5034951;28;20233;-65
2023/10/14 02:54:53;;;;;;;2.25;1.60;;;13.30;99.90;;;;;;5017769;28;20179;-65
2023/10/14 02:59:48;;;;;;;2.60;1.85;;;13.20;99.90;;;;;;5035537;28;20179;-65
2023/10/14 03:02:18;;;;;;;2.00;1.80;;;13.30;99.90;;;;;;5035139;28;20207;-65
2023/10/14 03:07:28;;;;;;;3.17;1.80;;;13.30;99.90;;;;;;5030688;28;20191;-65
2023/10/14 03:12:50;;;;;;;2.25;1.90;;;13.10;99.90;;;;;;5034514;28;20314;-65
2023/10/14 03:15:21;;;;;;;2.67;1.80;;;13.10;99.90;;;;;;5034809;28;20627;-65
2023/10/14 03:17:58;;;;;;;1.88;1.77;;;13.10;99.90;;;;;;5034792;28;20202;-65
2023/10/14 03:23:00;;;;;;;3.17;1.65;;;13.10;99.90;;;;;;5034960;28;20248;-65
2023/10/14 03:25:27;;;;;;;2.17;1.92;;;13.00;99.90;;;;;;5034521;28;20195;-65
2023/10/14 03:28:14;;;;;;;3.30;1.75;;;13.00;99.90;;;;;;5034892;28;20172;-65
2023/10/14 03:30:44;;;;;;;2.22;1.90;;;13.10;99.90;;;;;;5033972;28;20181;-65
2023/10/14 03:33:19;;;;;;;3.90;2.00;;;13.10;99.90;;;;;;5034502;28;20187;-65
2023/10/14 03:35:54;;;;;;;4.45;2.10;;;13.20;99.90;;;;;;5029721;28;20175;-65
2023/10/14 03:38:26;;;;;;;2.72;1.90;;;13.20;99.90;;;;;;5035332;28;20163;-65
2023/10/14 03:41:03;;;;;;;7.53;2.45;;;13.20;99.90;;;;;;5034872;28;20195;-64
2023/10/14 03:43:30;;;;;;;4.97;2.60;;;13.00;99.90;;;;;;5034725;28;20597;-66
2023/10/14 03:46:10;;;;;;;7.35;2.90;;;12.80;99.90;;;;;;5033982;28;20210;-65
2023/10/14 03:48:45;;;;;;;5.60;2.63;;;12.70;99.90;;;;;;5034064;28;20206;-65
2023/10/14 03:51:12;;;;;;;6.70;2.75;;;12.50;99.90;;;;;;5028214;28;20578;-65
2023/10/14 03:53:38;;;;;;;7.97;2.90;;;12.40;99.90;;;;;;5034479;28;20274;-64
2023/10/14 03:56:04;;;;;;;5.68;2.53;;;12.30;99.90;;;;;;5016498;28;20301;-63
2023/10/14 03:58:31;;;;;;;8.55;3.03;;;12.20;99.90;;;;;;5034896;28;20221;-64
2023/10/14 04:01:02;;;;;;;11.10;3.20;;;12.20;99.90;;;;;;5034251;28;20183;-65
2023/10/14 04:03:40;;;;;;;11.88;3.65;;;12.10;99.90;;;;;;5032849;28;20284;-65
2023/10/14 04:06:09;;;;;;;13.05;3.55;;;12.00;99.90;;;;;;5033854;28;20199;-65
2023/10/14 04:08:47;;;;;;;6.45;3.38;;;12.00;99.90;;;;;;5033045;28;20651;-65
2023/10/14 04:11:27;;;;;;;13.43;3.45;;;12.00;99.90;;;;;;5033107;28;20155;-64
2023/10/14 04:14:04;;;;;;;8.83;3.20;;;11.90;99.90;;;;;;5031776;28;20277;-64
2023/10/14 04:16:48;;;;;;;19.00;4.13;;;11.90;99.90;;;;;;5015873;28;20185;-64
2023/10/14 04:19:27;;;;;;;16.65;4.10;;;11.80;99.90;;;;;;5014904;28;20258;-64
2023/10/14 04:22:00;;;;;;;8.63;3.22;;;11.80;99.90;;;;;;5033562;28;20171;-64
2023/10/14 04:29:43;;;;;;;8.15;3.85;;;11.70;99.90;;;;;;5034229;28;20162;-64
2023/10/14 04:32:14;;;;;;;10.57;4.00;;;11.70;99.90;;;;;;5033630;28;20542;-64
2023/10/14 04:34:49;;;;;;;13.25;3.88;;;11.70;99.90;;;;;;5033469;28;20572;-64
2023/10/14 04:37:20;;;;;;;9.82;3.70;;;11.70;99.90;;;;;;5015712;28;20646;-64
2023/10/14 04:39:47;;;;;;;10.77;3.45;;;11.70;99.90;;;;;;5034285;28;20205;-64
2023/10/14 04:44:59;;;;;;;13.07;3.60;;;11.70;99.90;;;;;;5030845;28;20547;-64
2023/10/14 04:47:37;;;;;;;12.45;3.65;;;11.60;99.90;;;;;;5033529;28;20214;-64
2023/10/14 04:50:15;;;;;;;12.75;4.20;;;11.60;99.90;;;;;;5033538;28;20186;-64
2023/10/14 04:52:48;;;;;;;8.70;4.13;;;11.60;99.90;;;;;;5033380;28;20199;-64
2023/10/14 04:55:29;;;;;;;12.40;3.90;;;11.60;99.90;;;;;;5033404;28;20158;-64
2023/10/14 05:00:33;;;;;;;11.50;4.07;;;11.60;99.90;;;;;;5034071;28;20159;-64
2023/10/14 05:02:59;;;;;;;9.80;4.07;;;11.50;99.90;;;;;;5031669;28;20210;-65
2023/10/14 05:05:33;;;;;;;8.52;3.58;;;11.50;99.90;;;;;;5033655;28;20170;-65
2023/10/14 05:07:59;;;;;;;12.13;3.88;;;11.40;99.90;;;;;;5018392;28;20171;-64
2023/10/14 05:10:28;;;;;;;14.67;3.80;;;11.30;99.90;;;;;;5015418;28;20179;-65
2023/10/14 05:12:55;;;;;;;16.35;4.05;;;11.30;99.90;;;;;;5033048;28;20278;-64
2023/10/14 05:15:21;;;;;;;13.23;4.32;;;11.30;99.90;;;;;;5033210;28;20175;-65
2023/10/14 05:17:52;;;;;;;10.95;4.05;;;11.30;99.90;;;;;;5015625;28;20179;-64
2023/10/14 05:20:48;;;;;;;9.73;4.07;;;11.30;99.90;;;;;;5033824;28;20155;-64
2023/10/14 05:23:19;;;;;;;18.88;4.15;;;11.30;99.90;;;;;;5036975;28;20206;-64
2023/10/14 05:25:48;;;;;;;10.00;4.18;;;11.20;99.90;;;;;;5036826;28;20203;-64
2023/10/14 05:28:16;;;;;;;17.95;4.53;;;11.20;99.90;;;;;;5023307;28;20183;-64
2023/10/14 05:30:46;;;;;;;13.68;4.63;;;11.20;99.90;;;;;;5037258;28;20172;-65
2023/10/14 05:33:14;;;;;;;22.02;4.97;;;11.20;99.90;;;;;;5036431;28;20190;-64
2023/10/14 05:35:43;;;;;;;10.27;4.65;;;11.10;99.90;;;;;;5036985;28;20172;-64
2023/10/14 05:38:14;;;;;;;17.48;4.57;;;11.00;99.90;;;;;;5036728;28;20179;-64
2023/10/14 05:40:40;;;;;;;11.10;4.63;;;11.00;99.90;;;;;;5037145;28;20175;-66
2023/10/14 05:43:07;;;;;;;11.75;4.20;;;11.00;99.90;;;;;;5036774;28;20199;-65
2023/10/14 05:45:37;;;;;;;12.00;4.10;;;11.00;99.90;;;;;;5035611;28;20210;-65
2023/10/14 05:48:09;;;;;;;13.85;4.50;;;11.00;99.90;;;;;;5036907;28;20635;-65
2023/10/14 05:50:37;;;;;;;15.07;5.28;;;10.90;99.90;;;;;;5036827;28;20174;-65
2023/10/14 05:53:07;;;;;;;11.33;4.83;;;10.90;99.90;;;;;;5035929;28;20418;-65
2023/10/14 05:55:33;;;;;;;14.82;5.35;;;10.80;99.90;;;;;;5037220;28;20532;-64
2023/10/14 05:58:02;;;;;;;12.68;4.32;;;10.80;99.90;;;;;;5036317;28;20174;-65
2023/10/14 06:00:28;;;;;;;16.05;4.93;;;10.80;99.90;;;;;;5036623;28;20156;-64
2023/10/14 06:02:55;;;;;;;12.73;4.82;;;10.80;99.90;;;;;;5034805;28;20748;-64
2023/10/14 06:05:32;;;;;;;16.77;5.07;;;10.70;99.90;;;;;;5036602;28;20660;-65
2023/10/14 06:08:05;;;;;;;14.67;4.40;;;10.80;99.90;;;;;;5017859;28;20182;-65
2023/10/14 06:10:36;;;;;;;17.93;5.00;;;10.70;99.90;;;;;;5018654;28;20195;-65
2023/10/14 06:13:05;;;;;;;18.97;4.87;;;10.80;99.90;;;;;;5036159;28;20663;-65
2023/10/14 06:15:37;;;;;;;17.52;4.93;;;10.80;99.90;;;;;;5036097;28;20160;-65
2023/10/14 06:18:04;;;;;;;18.48;4.60;;;10.80;99.90;;;;;;5034966;28;20214;-64
2023/10/14 06:20:32;;;;;;;14.07;4.60;;;10.70;99.90;;;;;;5036692;28;20175;-64
2023/10/14 06:22:59;;;;;;;16.77;4.65;;;10.70;99.90;;;;;;5021719;28;20203;-64
2023/10/14 06:25:26;;;;;;;12.02;4.72;;;10.70;99.90;;;;;;5034420;28;20219;-64
2023/10/14 06:27:53;;;;;;;20.42;5.78;;;10.80;99.90;;;;;;5035756;28;20190;-64
2023/10/14 06:30:20;;;;;;;16.63;5.20;;;10.80;99.90;;;;;;5034817;28;20811;-64
2023/10/14 06:33:03;;;;;;;12.23;4.78;;;10.80;99.90;;;;;;5033502;28;20233;-64
2023/10/14 06:35:31;;;;;;;18.80;6.18;;;10.80;99.90;;;;;;5035654;28;20706;-64
2023/10/14 06:37:58;;;;;;;17.63;5.53;;;10.80;99.90;;;;;;5033805;28;20217;-65
2023/10/14 06:40:24;;;;;;;18.27;5.38;;;10.80;99.90;;;;;;5032269;28;20187;-65
2023/10/14 06:42:50;;;;;;;14.47;5.23;;;10.90;99.90;;;;;;5017367;28;20207;-64
2023/10/14 06:45:21;;;;;;;13.90;5.07;;;10.90;99.90;;;;;;5035638;28;20673;-65
2023/10/14 06:47:51;;;;;;;24.20;4.78;;;10.90;99.90;;;;;;5035556;28;20199;-64
2023/10/14 06:50:23;;;;;;;16.63;5.45;;;10.90;99.90;;;;;;5035759;28;20273;-65
2023/10/14 06:53:01;;;;;;;20.85;4.95;;;10.90;99.90;;;;;;5034129;28;20203;-64
2023/10/14 06:55:28;;;;;;;12.80;5.35;;;11.00;99.90;;;;;;5035537;28;20178;-65
2023/10/14 06:57:56;;;;;;;17.33;5.43;;;11.00;99.90;;;;;;5019229;28;20274;-65
2023/10/14 07:00:31;;;;;;;19.15;5.20;;;11.10;99.90;;;;;;5028729;28;20232;-64
2023/10/14 07:02:59;;;;;;;11.93;4.47;;;11.20;99.90;;;;;;5035239;28;20580;-65
2023/10/14 07:05:26;;;;;;;14.27;4.00;;;11.20;99.90;;;;;;5017680;28;20557;-64
2023/10/14 07:07:52;;;;;;;14.65;4.43;;;11.20;99.90;;;;;;5034633;28;20683;-65
2023/10/14 07:10:19;;;;;;;14.60;4.07;;;11.30;99.90;;;;;;5035366;28;20199;-65
2023/10/14 07:12:46;;;;;;;14.70;4.47;;;11.30;99.90;;;;;;5031039;28;20209;-65
2023/10/14 07:15:15;;;;;;;14.85;4.07;;;11.40;99.90;;;;;;5034471;28;20516;-65
2023/10/14 07:17:42;;;;;;;12.77;4.65;;;11.40;99.90;;;;;;5035050;28;20169;-65
2023/10/14 07:20:12;;;;;;;16.00;4.90;;;11.40;99.90;;;;;;5018988;28;20191;-65
2023/10/14 07:22:43;;;;;;;11.75;3.95;;;11.50;99.90;;;;;;5034718;28;20207;-65
2023/10/14 07:25:10;;;;;;;16.70;4.43;;;11.60;99.90;;;;;;5035248;28;20182;-66
2023/10/14 07:27:40;;;;;;;15.98;4.65;;;11.70;99.90;;;;;;5034526;28;20253;-66
2023/10/14 07:30:16;;;;;;;14.73;4.28;;;11.80;99.90;;;;;;5032719;28;20650;-65
2023/10/14 07:32:46;;;;;;;15.10;4.53;;;11.80;99.90;;;;;;5016988;28;20225;-65
2023/10/14 07:35:16;;;;;;;12.73;3.97;;;11.80;99.90;;;;;;5034743;28;20195;-65
2023/10/14 07:37:43;;;;;;;11.05;3.58;;;11.90;99.90;;;;;;5016608;28;20207;-66
2023/10/14 07:40:31;;;;;;;10.75;4.75;;;11.90;99.90;;;;;;5034587;28;20258;-66
2023/10/14 07:43:05;;;;;;;13.85;3.97;;;12.00;99.90;;;;;;5034232;28;20194;-65
2023/10/14 07:45:35;;;;;;;14.57;4.07;;;12.10;99.90;;;;;;5021482;28;20202;-65
2023/10/14 07:48:09;;;;;;;13.80;4.00;;;12.20;99.90;;;;;;5031463;28;20179;-66
2023/10/14 07:50:37;;;;;;;11.90;4.13;;;12.20;99.90;;;;;;5035232;28;20194;-66
2023/10/14 07:53:12;;;;;;;18.60;5.05;;;12.20;99.90;;;;;;5034056;28;20248;-66
2023/10/14 07:55:47;;;;;;;13.57;4.80;;;12.40;99.90;;;;;;5034342;28;20577;-65
2023/10/14 07:58:16;;;;;;;10.13;4.20;;;12.30;99.90;;;;;;5033764;28;20186;-63
2023/10/14 08:00:50;;;;;;;14.05;3.83;;;12.30;99.90;;;;;;5033573;28;20171;-66
2023/10/14 08:03:29;;;;;;;11.82;4.22;;;12.40;99.90;;;;;;5033041;28;20237;-66
2023/10/14 08:05:59;;;;;;;9.90;3.40;;;12.40;99.90;;;;;;5032824;28;20209;-66
2023/10/14 08:08:30;;;;;;;14.05;4.82;;;12.40;99.90;;;;;;5033868;28;20183;-67
2023/10/14 08:10:58;;;;;;;12.80;4.68;;;12.40;99.90;;;;;;5028075;28;20179;-66
2023/10/14 08:13:26;;;;;;;14.30;4.40;;;12.50;99.90;;;;;;5034023;28;20194;-66
2023/10/14 08:15:54;;;;;;;15.07;4.32;;;12.50;99.90;;;;;;5034584;28;20226;-67
2023/10/14 08:18:24;;;;;;;19.80;5.43;;;12.50;99.90;;;;;;5031951;28;20221;-66
2023/10/14 08:20:55;;;;;;;12.00;4.50;;;12.60;99.90;;;;;;5016340;28;20178;-66
2023/10/14 08:23:22;;;;;;;16.15;4.75;;;12.50;99.90;;;;;;5033775;28;20207;-66
2023/10/14 08:25:54;;;;;;;16.35;4.53;;;12.60;99.90;;;;;;5016204;28;20203;-66
2023/10/14 08:28:22;;;;;;;17.60;4.85;;;12.60;99.90;;;;;;5033234;28;20222;-67
2023/10/14 08:30:50;;;;;;;19.02;6.38;;;12.60;99.90;;;;;;5032395;28;20183;-66
2023/10/14 08:33:19;;;;;;;12.85;5.03;;;12.60;99.90;;;;;;5015918;28;20245;-66
2023/10/14 08:35:48;;;;;;;17.10;5.63;;;12.60;99.90;;;;;;5032677;28;20714;-66
2023/10/14 08:38:19;;;;;;;16.52;5.53;;;12.80;99.90;;;;;;5030829;28;20186;-66
2023/10/14 08:40:49;;;;;;;22.92;5.35;;;12.90;99.90;;;;;;5033612;28;20258;-66
2023/10/14 08:43:22;;;;;;;13.70;4.82;;;12.90;99.90;;;;;;5033610;28;20187;-66
2023/10/14 08:45:49;;;;;;;12.90;5.43;;;13.00;99.90;;;;;;5033966;28;20256;-67
2023/10/14 08:48:23;;;;;;;22.15;5.90;;;12.90;99.90;;;;;;5033380;28;20607;-66
2023/10/14 08:50:56;;;;;;;16.17;5.57;;;13.00;99.90;;;;;;5020343;28;20211;-66
2023/10/14 08:53:23;;;;;;;20.17;6.10;;;13.10;99.90;;;;;;5030329;28;20229;-67
2023/10/14 08:55:52;;;;;;;24.02;5.63;;;13.10;99.90;;;;;;5030969;28;20559;-66
2023/10/14 08:58:22;;;;;;;17.17;5.22;;;13.00;99.90;;;;;;5015403;28;20257;-67
2023/10/14 09:00:51;;;;;;;13.55;5.03;;;12.90;99.90;;;;;;5032075;28;20195;-66
2023/10/14 09:03:17;;;;;;;11.57;5.22;;;13.00;99.90;;;;;;5031939;28;20757;-65
2023/10/14 09:05:44;;;;;;;16.88;5.38;;;13.10;99.90;;;;;;5014013;28;20186;-66
2023/10/14 09:08:17;;;;;;;18.00;5.78;;;13.30;99.90;;;;;;5014015;28;20189;-66
2023/10/14 09:10:43;;;;;;;15.95;5.63;;;13.30;99.90;;;;;;5033609;28;20178;-65
2023/10/14 09:13:11;;;;;;;13.52;4.43;;;13.30;99.90;;;;;;5014173;28;20203;-66
2023/10/14 09:15:40;;;;;;;15.07;4.97;;;13.30;99.90;;;;;;5033490;28;20179;-65
2023/10/14 09:18:14;;;;;;;16.85;4.88;;;13.40;99.90;;;;;;5015578;28;20270;-66
2023/10/14 09:20:41;;;;;;;21.63;5.03;;;13.50;99.90;;;;;;5015352;28;20185;-66
2023/10/14 09:23:42;;;;;;;18.25;4.82;;;13.60;99.90;;;;;;5033012;28;20648;-65
2023/10/14 09:26:08;;;;;;;11.02;5.15;;;13.60;99.90;;;;;;5033334;28;20182;-66
2023/10/14 09:28:40;;;;;;;24.80;4.97;;;13.50;99.90;;;;;;5033307;28;20164;-66
2023/10/14 09:31:08;;;;;;;14.18;4.80;;;13.40;99.90;;;;;;5029358;28;20233;-66
2023/10/14 09:33:43;;;;;;;11.98;4.10;;;13.50;99.90;;;;;;5015691;28;20252;-66
2023/10/14 09:36:22;;;;;;;19.67;6.85;;;13.50;99.90;;;;;;5033298;28;20205;-66
2023/10/14 09:38:49;;;;;;;17.40;5.65;;;13.60;99.90;;;;;;5034055;28;20151;-67
2023/10/14 09:41:15;;;;;;;13.55;4.95;;;13.60;99.90;;;;;;5032781;28;20226;-65
2023/10/14 09:43:48;;;;;;;13.55;4.32;;;13.60;99.90;;;;;;5032903;28;20746;-65
2023/10/14 09:46:17;;;;;;;17.02;5.07;;;13.60;99.90;;;;;;5032174;28;20214;-65
2023/10/14 09:48:44;;;;;;;12.35;4.70;;;13.40;99.90;;;;;;5031924;28;20176;-66
2023/10/14 09:51:13;;;;;;;14.13;4.50;;;13.20;99.90;;;;;;5031471;28;20229;-66
2023/10/14 09:53:40;;;;;;;17.85;4.35;;;13.20;99.90;;;;;;5032970;28;20566;-66
2023/10/14 09:56:11;;;;;;;14.50;4.80;;;13.10;99.90;;;;;;5033005;28;20182;-66
2023/10/14 09:58:43;;;;;;;19.40;4.90;;;13.00;99.90;;;;;;5032824;28;20151;-65
2023/10/14 10:01:18;;;;;;;18.60;5.43;;;12.90;99.90;;;;;;5014761;28;20179;-66
2023/10/14 10:03:48;;;;;;;10.57;4.72;;;13.00;99.90;;;;;;5030181;28;20214;-66
2023/10/14 10:06:43;;;;;;;16.50;4.78;;;13.10;99.90;;;;;;5018575;28;20290;-65
2023/10/14 10:09:21;;;;;;;16.92;5.53;;;13.10;99.90;;;;;;5034549;28;20174;-66
2023/10/14 10:11:52;;;;;;;18.55;5.53;;;13.10;99.90;;;;;;5018553;28;20727;-65
2023/10/14 10:14:20;;;;;;;17.67;5.78;;;13.30;99.90;;;;;;5035986;28;20248;-66
2023/10/14 10:16:52;;;;;;;16.02;5.55;;;13.50;99.90;;;;;;5036803;28;20178;-65
2023/10/14 10:19:21;;;;;;;17.35;4.50;;;13.50;99.90;;;;;;5035950;28;20187;-65
2023/10/14 10:22:12;;;;;;;11.18;4.53;;;13.60;99.90;;;;;;5035893;28;20663;-66
2023/10/14 10:24:42;;;;;;;15.10;4.53;;;13.70;99.90;;;;;;5036194;28;20203;-67
2023/10/14 10:27:12;;;;;;;15.50;4.88;;;13.70;99.90;;;;;;5035078;28;20210;-66
2023/10/14 10:29:48;;;;;;;10.43;4.38;;;13.70;99.90;;;;;;5035614;28;20229;-65
2023/10/14 10:32:33;;;;;;;11.05;4.53;;;13.60;99.90;;;;;;5033602;28;20527;-65
2023/10/14 10:35:05;;;;;;;14.70;4.00;;;13.60;99.90;;;;;;5033740;28;20176;-65
2023/10/14 10:38:00;;;;;;;11.15;4.10;;;13.70;99.90;;;;;;5034640;28;20580;-66
2023/10/14 10:40:28;;;;;;;11.73;4.70;;;13.80;99.90;;;;;;5016593;28;20251;-66
2023/10/14 10:42:56;;;;;;;15.68;4.40;;;14.00;99.90;;;;;;5035505;28;20277;-66
2023/10/14 10:45:46;;;;;;;19.08;4.80;;;13.80;99.90;;;;;;5028883;28;20191;-68
2023/10/14 10:48:16;;;;;;;18.35;4.40;;;13.60;99.90;;;;;;5029709;28;20186;-67
2023/10/14 10:50:49;;;;;;;11.63;4.10;;;13.40;99.90;;;;;;5034261;28;20191;-66
2023/10/14 10:53:19;;;;;;;16.23;4.97;;;13.40;99.90;;;;;;5035487;28;20214;-66
2023/10/14 10:55:47;;;;;;;13.40;4.40;;;13.30;99.90;;;;;;5034407;28;20171;-65
2023/10/14 10:58:14;;;;;;;12.18;3.67;;;13.20;99.90;;;;;;5018291;28;20174;-65
2023/10/14 11:00:46;;;;;;;17.70;4.25;;;13.10;99.90;;;;;;5017730;28;20183;-66
2023/10/14 11:03:14;;;;;;;18.25;5.35;;;13.20;99.90;;;;;;5035606;28;20564;-66
2023/10/14 11:05:42;;;;;;;14.68;4.55;;;13.40;99.90;;;;;;5033838;28;20618;-65
2023/10/14 11:08:08;;;;;;;12.40;4.72;;;13.50;99.90;;;;;;5032443;28;20266;-65
2023/10/14 11:10:42;;;;;;;15.27;4.65;;;13.80;99.90;;;;;;5032167;28;20183;-65
2023/10/14 11:13:11;;;;;;;14.13;4.15;;;14.20;99.90;;;;;;5034591;28;20253;-65
2023/10/14 11:15:39;;;;;;;10.18;3.72;;;14.60;99.90;;;;;;5031082;28;20183;-64
2023/10/14 11:18:06;;;;;;;11.23;3.90;;;14.80;99.90;;;;;;5031244;28;20187;-65
2023/10/14 11:20:38;;;;;;;15.18;4.47;;;14.80;99.90;;;;;;5031483;28;20211;-65
2023/10/14 11:23:08;;;;;;;10.80;4.53;;;14.50;99.90;;;;;;5034080;28;20198;-65
2023/10/14 11:25:41;;;;;;;11.38;4.05;;;14.30;99.90;;;;;;5034583;28;20670;-66
2023/10/14 11:28:14;;;;;;;18.08;4.72;;;14.00;99.90;;;;;;5017054;28;20683;-66
2023/10/14 11:30:47;;;;;;;10.10;4.75;;;13.80;99.90;;;;;;5030861;28;20179;-65
2023/10/14 11:33:18;;;;;;;14.18;4.20;;;13.80;99.90;;;;;;5014672;28;20206;-66
2023/10/14 11:35:49;;;;;;;12.13;4.38;;;14.00;99.90;;;;;;5017588;28;20167;-66
2023/10/14 11:38:15;;;;;;;14.18;4.25;;;13.90;99.90;;;;;;5035585;28;20167;-66
2023/10/14 11:40:48;;;;;;;13.55;3.80;;;13.80;99.90;;;;;;5034751;28;20183;-66
2023/10/14 11:43:21;;;;;;;14.57;4.35;;;13.60;99.90;;;;;;5030518;28;20195;-66
2023/10/14 11:45:47;;;;;;;13.32;4.45;;;13.40;99.90;;;;;;5025512;28;20247;-66
2023/10/14 11:48:24;;;;;;;21.15;4.50;;;13.20;99.90;;;;;;5029466;28;20621;-65
2023/10/14 11:50:58;;;;;;;10.63;4.18;;;13.20;99.90;;;;;;5029957;28;20182;-65
2023/10/14 11:53:38;;;;;;;15.75;5.60;;;13.20;99.90;;;;;;5029817;28;20274;-65
2023/10/14 11:56:04;;;;;;;14.48;4.05;;;13.50;99.90;;;;;;5023333;28;20195;-65
2023/10/14 11:58:32;;;;;;;15.25;4.75;;;13.90;99.90;;;;;;5024319;28;20586;-65
2023/10/14 12:00:58;;;;;;;12.32;4.07;;;14.10;99.90;;;;;;5016184;28;20187;-66
2023/10/14 12:03:26;;;;;;;16.75;4.55;;;14.60;99.90;;;;;;5028820;28;20707;-67
2023/10/14 12:05:59;;;;;;;18.40;5.30;;;14.80;99.90;;;;;;5011824;28;20290;-65
2023/10/14 12:08:39;;;;;;;13.80;4.30;;;15.10;99.90;;;;;;5028597;28;20186;-65
2023/10/14 12:11:08;;;;;;;14.15;4.60;;;15.10;99.90;;;;;;5003174;28;20179;-65
2023/10/14 12:13:36;;;;;;;12.10;4.63;;;15.10;99.90;;;;;;5022662;28;20670;-66
2023/10/14 12:16:05;;;;;;;15.85;5.65;;;14.90;99.90;;;;;;5015259;28;20186;-66
2023/10/14 12:18:36;;;;;;;14.18;4.57;;;15.00;99.90;;;;;;5029437;28;20221;-66
2023/10/14 12:21:03;;;;;;;13.07;4.10;;;14.80;99.90;;;;;;5027276;28;20272;-66
2023/10/14 12:23:31;;;;;;;12.73;4.20;;;15.00;99.90;;;;;;5014217;28;20203;-65
2023/10/14 12:26:01;;;;;;;9.15;4.07;;;15.10;99.90;;;;;;5015922;28;20357;-66
2023/10/14 12:28:33;;;;;;;12.70;4.07;;;15.10;99.90;;;;;;5033520;28;20178;-65
2023/10/14 12:31:07;;;;;;;10.10;4.25;;;14.80;99.90;;;;;;5033001;28;20190;-66
2023/10/14 12:33:38;;;;;;;11.77;4.05;;;14.60;99.90;;;;;;5033703;28;20195;-66
2023/10/14 12:36:14;;;;;;;15.90;4.35;;;14.30;99.90;;;;;;5009777;28;20191;-66
2023/10/14 12:38:42;;;;;;;15.00;4.55;;;14.20;99.90;;;;;;5029124;28;20528;-66
2023/10/14 12:41:09;;;;;;;15.25;4.80;;;14.20;99.90;;;;;;5026585;28;20665;-66
2023/10/14 12:43:42;;;;;;;12.73;4.20;;;14.10;99.90;;;;;;5019308;28;20202;-65
2023/10/14 12:46:19;;;;;;;7.30;3.35;;;14.10;99.90;;;;;;5027627;28;20229;-66
2023/10/14 12:48:50;;;;;;;9.75;4.50;;;14.20;99.90;;;;;;5015928;28;20535;-65
2023/10/14 12:51:18;;;;;;;15.80;5.50;;;14.10;99.90;;;;;;5016587;28;20187;-66
2023/10/14 12:53:48;;;;;;;15.20;4.45;;;13.90;99.90;;;;;;5007272;28;20567;-65
2023/10/14 12:56:15;;;;;;;13.10;4.70;;;13.80;99.90;;;;;;5016226;28;20189;-65
2023/10/14 12:58:45;;;;;;;8.60;4.03;;;13.80;99.90;;;;;;5035001;28;20191;-65
2023/10/14 13:01:17;;;;;;;15.88;5.68;;;14.00;99.90;;;;;;5015570;28;20175;-65
2023/10/14 13:03:51;;;;;;;10.70;3.95;;;14.40;99.90;;;;;;5033575;28;20289;-66
2023/10/14 13:06:22;;;;;;;14.60;3.95;;;14.50;99.90;;;;;;5015593;28;20238;-65
2023/10/14 13:08:59;;;;;;;9.15;3.58;;;14.50;99.90;;;;;;5031599;28;20233;-66
2023/10/14 13:11:29;;;;;;;13.27;3.75;;;14.40;99.90;;;;;;5030476;28;20182;-65
2023/10/14 13:13:57;;;;;;;11.00;4.20;;;14.30;99.90;;;;;;5015586;28;20257;-65
2023/10/14 13:16:25;;;;;;;13.85;4.43;;;14.40;99.90;;;;;;5010171;28;20190;-66
2023/10/14 13:18:56;;;;;;;7.88;3.63;;;14.30;99.90;;;;;;5031489;28;20191;-65
2023/10/14 13:21:28;;;;;;;10.48;3.67;;;14.20;99.90;;;;;;5004343;28;20178;-66
2023/10/14 13:23:56;;;;;;;9.85;3.83;;;14.10;99.90;;;;;;5015020;28;20253;-65
2023/10/14 13:26:22;;;;;;;10.05;3.67;;;14.30;99.90;;;;;;5027845;28;20256;-66